aviador You're here:

YCBB Decoded Metar

in
Report Time2018-07-22 16:00:00
UTC Time2018-07-22 16:32:03
Flight Rules vfr VFR
Wind180° at 04 kt
W.Decomp.*RWY 19: 3.9 kt HW 0.7 kt LCW
RWY 11: 1.4 kt HW 3.8 kt RCW
W.Rank180° ranks 11
Current wind is below 180° avg. (7.3)
Visibility9999 m
Phenomena:N/A
Clouds:N/A
Expected CloudBase > 4,800 ft AGL from Temp-Dew spread
CeilingNone
Temp07°C
Dew Point-5°C (42% RH)
AAT2.9°C
QNH1020 hPa
Raw Report
METAR YCBB 221600Z AUTO 18004KT 9999 // NCD 07/M05 Q1020=

Extra information for YCBB:More info

Social comments